Ambassador Norris — H9AH — position and weather

sailwx.info

Track history (hours):
 
Tides and Currents Weather Stations Pressure Air Temp Water Temp Dewpoint Dewpoint Depression Visibility Wind Speed Wind Dir Waves Ship Positions

Ambassador Norris

Last reported at 2017-Oct-30 07:15 UTC. Time now 2017-Nov-24 02:10 UTC.
Position N 33°51' E 134°56'.
Warning: this ship's position is 24 days out of date.

Length 179 m; draft 8.2 m.

Type: Ship (hazmat cat B). MMSI: 355828000.

Date/timePositionNaut miles runAvg speedWind from/ knotsBaromVisibWave heightAir tempDewpointWater temp
2017-Oct-30 07:15N 33°51' E 134°56'314.2
2017-Oct-30 07:00N 33°54' E 134°56'714.6
2017-Oct-30 06:30N 34°01' E 134°57'714.9
2017-Oct-30 06:00N 34°09' E 134°57'612.5
2017-Oct-30 05:30N 34°15' E 134°58'714.0
2017-Oct-30 05:00N 34°22' E 134°60'815.5
2017-Oct-30 04:31N 34°28' E 135°04'713.5
2017-Oct-30 04:00N 34°35' E 135°08'5 9.6
2017-Oct-30 03:30N 34°36' E 135°02'610.9
2017-Oct-30 03:00N 34°36' E 134°55'  
Track history (hours):
 
Tides and Currents Weather Stations Pressure Air Temp Water Temp Dewpoint Dewpoint Depression Visibility Wind Speed Wind Dir Waves Ship Positions

Ambassador Norris

Last reported at 2017-Oct-30 07:15 UTC. Time now 2017-Nov-24 02:10 UTC.
Position N 33°51' E 134°56'.
Warning: this ship's position is 24 days out of date.

Length 179 m; draft 8.2 m.

Type: Ship (hazmat cat B). MMSI: 355828000.

Date/timePositionNaut miles runAvg speedWind from/ knotsBaromVisibWave heightAir tempDewpointWater temp
2017-Oct-30 07:15N 33°51' E 134°56'314.2
2017-Oct-30 07:00N 33°54' E 134°56'714.6
2017-Oct-30 06:30N 34°01' E 134°57'714.9
2017-Oct-30 06:00N 34°09' E 134°57'612.5
2017-Oct-30 05:30N 34°15' E 134°58'714.0
2017-Oct-30 05:00N 34°22' E 134°60'815.5
2017-Oct-30 04:31N 34°28' E 135°04'713.5
2017-Oct-30 04:00N 34°35' E 135°08'5 9.6
2017-Oct-30 03:30N 34°36' E 135°02'610.9
2017-Oct-30 03:00N 34°36' E 134°55'  

Dump ship's entire track history